createdAt,value
2019-02-18T00:01:54.420Z,99.90
2019-02-18T00:04:22.838Z,99.70
2019-02-18T00:06:53.974Z,99.60
2019-02-18T00:09:22.639Z,99.60
2019-02-18T00:11:53.814Z,99.70
2019-02-18T00:14:29.577Z,99.70
2019-02-18T00:17:02.254Z,99.70
2019-02-18T00:19:34.069Z,99.60
2019-02-18T00:22:08.470Z,99.70
2019-02-18T00:24:38.837Z,99.70
2019-02-18T00:27:10.201Z,99.80
2019-02-18T00:29:39.121Z,99.90
2019-02-18T00:32:10.476Z,99.90
2019-02-18T00:34:44.532Z,99.90
2019-02-18T00:37:24.196Z,99.90
2019-02-18T00:39:45.932Z,99.90
2019-02-18T00:42:19.986Z,99.90
2019-02-18T00:44:48.432Z,99.90
2019-02-18T00:47:22.530Z,99.90
2019-02-18T00:49:55.133Z,99.90
2019-02-18T00:52:23.548Z,99.90
2019-02-18T00:54:51.956Z,99.90
2019-02-18T00:57:23.125Z,99.90
2019-02-18T01:00:00.297Z,99.90
2019-02-18T01:02:31.470Z,99.90
2019-02-18T01:04:59.957Z,99.90
2019-02-18T01:07:36.073Z,99.90
2019-02-18T01:10:09.094Z,99.90
2019-02-18T01:12:40.325Z,99.90
2019-02-18T01:15:16.041Z,99.90
2019-02-18T01:17:44.466Z,99.90
2019-02-18T01:20:21.815Z,99.90
2019-02-18T01:22:52.761Z,99.90
2019-02-18T01:25:26.870Z,99.90
2019-02-18T01:27:58.245Z,99.90
2019-02-18T01:30:31.279Z,99.90
2019-02-18T01:33:02.753Z,99.90
2019-02-18T01:35:31.173Z,99.90
2019-02-18T01:37:59.599Z,99.90
2019-02-18T01:40:33.266Z,99.90
2019-02-18T01:43:02.048Z,99.90
2019-02-18T01:45:30.704Z,99.90
2019-02-18T01:48:00.718Z,99.90
2019-02-18T01:50:30.801Z,99.90
2019-02-18T01:53:02.758Z,99.90
2019-02-18T01:55:31.174Z,99.90
2019-02-18T01:57:59.599Z,99.90
2019-02-18T02:00:39.894Z,99.90
2019-02-18T02:03:13.637Z,99.90
2019-02-18T02:05:50.282Z,99.90
2019-02-18T02:08:23.337Z,99.90
2019-02-18T02:10:54.539Z,99.90
2019-02-18T02:13:28.321Z,99.90
2019-02-18T02:16:11.432Z,99.90
2019-02-18T02:18:40.003Z,99.90
2019-02-18T02:21:17.408Z,99.90
2019-02-18T02:23:46.069Z,99.90
2019-02-18T02:26:14.734Z,99.90
2019-02-18T02:28:51.353Z,99.90
2019-02-18T02:31:19.777Z,99.90
2019-02-18T02:33:51.259Z,99.90
2019-02-18T02:36:22.594Z,99.90
2019-02-18T02:38:51.013Z,99.90
2019-02-18T02:41:21.065Z,99.90
2019-02-18T02:43:49.806Z,99.90
2019-02-18T02:46:19.493Z,99.90
2019-02-18T02:48:47.918Z,99.90
2019-02-18T02:51:21.986Z,99.90
2019-02-18T02:53:56.450Z,99.90
2019-02-18T02:56:27.617Z,99.90
2019-02-18T02:58:59.215Z,99.90
2019-02-18T03:01:27.635Z,99.90
2019-02-18T03:03:56.065Z,99.90
2019-02-18T03:06:29.950Z,99.90
2019-02-18T03:08:58.950Z,99.90
2019-02-18T03:11:30.422Z,99.90
2019-02-18T03:13:58.854Z,99.90
2019-02-18T03:16:31.847Z,99.90
2019-02-18T03:19:01.914Z,99.90
2019-02-18T03:21:30.339Z,99.90
2019-02-18T03:23:58.833Z,99.90
2019-02-18T03:26:29.900Z,99.90
2019-02-18T03:29:29.893Z,99.90
2019-02-18T03:31:58.414Z,99.90
2019-02-18T03:34:30.333Z,99.90
2019-02-18T03:37:00.449Z,99.90
2019-02-18T03:39:34.550Z,99.90
2019-02-18T03:42:00.717Z,99.90
2019-02-18T03:44:32.041Z,99.90
2019-02-18T03:47:00.468Z,99.90
2019-02-18T03:49:31.814Z,99.90
2019-02-18T03:52:00.230Z,99.90
2019-02-18T03:54:33.254Z,99.90
2019-02-18T03:57:06.280Z,99.90
2019-02-18T03:59:38.661Z,99.90
2019-02-18T04:02:08.741Z,99.90
2019-02-18T04:04:37.190Z,99.90
2019-02-18T04:07:05.690Z,99.90
2019-02-18T04:09:34.099Z,99.90
2019-02-18T04:12:05.485Z,99.90
2019-02-18T04:14:41.562Z,99.90
2019-02-18T04:17:14.397Z,99.90
2019-02-18T04:19:45.534Z,99.90
2019-02-18T04:22:15.237Z,99.90
2019-02-18T04:24:43.690Z,99.90
2019-02-18T04:27:16.465Z,99.90
2019-02-18T04:29:48.094Z,99.90
2019-02-18T04:32:19.581Z,99.90
2019-02-18T04:34:53.403Z,99.90
2019-02-18T04:37:23.541Z,99.90
2019-02-18T04:39:54.758Z,99.90
2019-02-18T04:42:24.612Z,99.90
2019-02-18T04:44:57.370Z,99.90
2019-02-18T04:47:30.248Z,99.90
2019-02-18T04:49:58.905Z,99.90
2019-02-18T04:52:30.314Z,99.90
2019-02-18T04:55:03.043Z,99.90
2019-02-18T04:57:31.721Z,99.90
2019-02-18T05:00:03.019Z,99.90
2019-02-18T05:02:45.884Z,99.90
2019-02-18T05:05:36.975Z,99.90
2019-02-18T05:08:05.429Z,99.90
2019-02-18T05:10:36.574Z,99.90
2019-02-18T05:13:10.691Z,99.90
2019-02-18T05:15:40.311Z,99.90
2019-02-18T05:18:10.745Z,99.90
2019-02-18T05:20:40.713Z,99.90
2019-02-18T05:23:09.109Z,99.90
2019-02-18T05:25:40.218Z,99.90
2019-02-18T05:28:08.640Z,99.90
2019-02-18T05:30:45.501Z,99.90
2019-02-18T05:33:16.958Z,99.90
2019-02-18T05:35:50.969Z,99.90
2019-02-18T05:38:22.541Z,99.90
2019-02-18T05:40:50.966Z,99.90
2019-02-18T05:43:22.341Z,99.90
2019-02-18T05:45:50.759Z,99.90
2019-02-18T05:48:20.174Z,99.90
2019-02-18T05:50:58.914Z,99.90
2019-02-18T05:53:24.698Z,99.90
2019-02-18T05:56:01.782Z,99.90
2019-02-18T05:58:33.183Z,99.90
2019-02-18T06:01:07.458Z,99.90
2019-02-18T06:03:38.797Z,99.90
2019-02-18T06:06:09.923Z,99.90
2019-02-18T06:08:40.058Z,99.90
2019-02-18T06:11:11.558Z,99.90
2019-02-18T06:13:43.367Z,99.90
2019-02-18T06:16:19.548Z,99.90
2019-02-18T06:18:50.025Z,99.90
2019-02-18T06:21:20.718Z,99.90
2019-02-18T06:23:52.219Z,99.90
2019-02-18T06:26:34.423Z,99.90
2019-02-18T06:29:14.885Z,99.90
2019-02-18T06:31:42.012Z,99.90
2019-02-18T06:34:18.097Z,99.90
2019-02-18T06:36:57.464Z,99.90
2019-02-18T06:39:40.195Z,99.90
2019-02-18T06:42:01.517Z,99.90
2019-02-18T06:44:34.975Z,99.90
2019-02-18T06:47:05.378Z,99.90
2019-02-18T06:49:34.280Z,99.90
2019-02-18T06:52:07.527Z,99.90
2019-02-18T06:54:35.375Z,99.90
2019-02-18T06:57:22.010Z,99.90
2019-02-18T06:59:55.284Z,99.90
2019-02-18T07:02:29.696Z,99.90
2019-02-18T07:05:52.894Z,99.90
2019-02-18T07:07:43.775Z,99.90
2019-02-18T07:10:31.430Z,99.90
2019-02-18T07:13:11.939Z,99.90
2019-02-18T07:15:55.536Z,94.30
2019-02-18T07:18:28.650Z,88.70
2019-02-18T07:21:01.765Z,75.10
2019-02-18T07:23:34.280Z,62.50
2019-02-18T07:26:13.697Z,55.60
2019-02-18T07:28:47.217Z,50.20
2019-02-18T07:31:19.027Z,45.90
2019-02-18T07:33:54.577Z,42.10
2019-02-18T07:36:24.892Z,40.50
2019-02-18T07:39:07.681Z,37.70
2019-02-18T07:41:43.765Z,36.60
2019-02-18T07:44:24.178Z,33.90
2019-02-18T07:46:55.130Z,33.60
2019-02-18T07:49:32.338Z,33.20
2019-02-18T07:52:14.738Z,32.00
2019-02-18T07:54:46.339Z,31.20
2019-02-18T07:57:15.218Z,29.80
2019-02-18T07:59:54.977Z,28.70
2019-02-18T08:02:34.180Z,28.30
2019-02-18T08:05:14.100Z,27.70
2019-02-18T08:07:51.631Z,26.70
2019-02-18T08:10:21.940Z,25.70
2019-02-18T08:13:14.232Z,25.40
2019-02-18T08:15:40.632Z,25.40
2019-02-18T08:18:21.947Z,25.10
2019-02-18T08:20:59.700Z,24.70
2019-02-18T08:23:35.603Z,24.40
2019-02-18T08:26:09.783Z,23.60
2019-02-18T08:28:39.898Z,24.40
2019-02-18T08:31:11.377Z,23.00
2019-02-18T08:33:42.425Z,22.90
2019-02-18T08:36:16.377Z,22.60
2019-02-18T08:38:48.484Z,22.90
2019-02-18T08:41:16.966Z,22.50
2019-02-18T08:43:48.111Z,22.50
2019-02-18T08:46:16.769Z,22.30
2019-02-18T08:48:46.856Z,21.90
2019-02-18T08:51:15.278Z,21.40
2019-02-18T08:53:48.248Z,21.20
2019-02-18T08:56:21.706Z,21.30
2019-02-18T08:58:50.152Z,21.40
2019-02-18T09:01:23.026Z,21.30
2019-02-18T09:03:51.938Z,21.30
2019-02-18T09:06:28.971Z,21.00
2019-02-18T09:08:57.421Z,20.60
2019-02-18T09:11:25.833Z,20.30
2019-02-18T09:13:54.302Z,20.40
2019-02-18T09:16:22.821Z,20.60
2019-02-18T09:18:51.533Z,19.90
2019-02-18T09:21:26.993Z,20.20
2019-02-18T09:24:00.093Z,20.10
2019-02-18T09:26:30.154Z,19.80
2019-02-18T09:29:00.228Z,19.70
2019-02-18T09:31:29.009Z,19.60
2019-02-18T09:33:58.981Z,19.40
2019-02-18T09:36:30.340Z,19.40
2019-02-18T09:39:00.609Z,18.80
2019-02-18T09:41:43.997Z,19.20
2019-02-18T09:44:12.422Z,19.40
2019-02-18T09:46:49.457Z,19.20
2019-02-18T09:49:31.192Z,19.30
2019-02-18T09:51:53.509Z,19.20
2019-02-18T09:54:24.612Z,19.50
2019-02-18T09:56:54.662Z,18.80
2019-02-18T09:59:23.106Z,19.00
2019-02-18T10:01:56.756Z,19.30
2019-02-18T10:04:26.945Z,19.50
2019-02-18T10:06:55.358Z,19.50
2019-02-18T10:09:26.484Z,19.50
2019-02-18T10:12:00.612Z,19.70
2019-02-18T10:14:29.173Z,19.90
2019-02-18T10:16:59.510Z,19.80
2019-02-18T10:19:27.941Z,19.70
2019-02-18T10:21:59.167Z,19.70
2019-02-18T10:24:30.382Z,19.80
2019-02-18T10:27:00.441Z,19.40
2019-02-18T10:29:29.184Z,19.60
2019-02-18T10:31:59.243Z,19.60
2019-02-18T10:34:30.545Z,19.70
2019-02-18T10:37:01.821Z,19.50
2019-02-18T10:39:30.602Z,19.60
2019-02-18T10:42:03.646Z,19.40
2019-02-18T10:44:32.098Z,19.20
2019-02-18T10:47:00.521Z,19.40
2019-02-18T10:49:28.929Z,18.30
2019-02-18T10:51:58.352Z,19.10
2019-02-18T10:54:29.413Z,19.40
2019-02-18T10:57:00.598Z,17.50
2019-02-18T10:59:29.017Z,16.50
2019-02-18T11:02:06.478Z,17.50
2019-02-18T11:04:37.674Z,18.50
2019-02-18T11:07:11.949Z,18.70
2019-02-18T11:09:43.394Z,19.30
2019-02-18T11:12:12.234Z,19.50
2019-02-18T11:14:43.646Z,20.20
2019-02-18T11:17:17.762Z,20.10
2019-02-18T11:19:46.234Z,20.50
2019-02-18T11:22:17.328Z,20.90
2019-02-18T11:24:47.534Z,20.40
2019-02-18T11:27:20.130Z,20.70
2019-02-18T11:30:02.414Z,21.50
2019-02-18T11:32:32.677Z,21.70
2019-02-18T11:35:01.081Z,21.90
2019-02-18T11:37:32.197Z,22.20
2019-02-18T11:40:04.877Z,22.60
2019-02-18T11:42:37.465Z,23.00
2019-02-18T11:45:12.186Z,22.80
2019-02-18T11:47:40.685Z,23.10
2019-02-18T11:50:11.041Z,23.20
2019-02-18T11:52:40.500Z,23.00
2019-02-18T11:55:10.942Z,23.00
2019-02-18T11:57:45.081Z,22.70
2019-02-18T12:00:18.173Z,23.40
2019-02-18T12:03:02.775Z,23.10
2019-02-18T12:05:25.081Z,22.90
2019-02-18T12:07:56.224Z,23.40
2019-02-18T12:10:27.829Z,23.30
2019-02-18T12:12:57.885Z,23.60
2019-02-18T12:15:26.313Z,23.10
2019-02-18T12:17:54.834Z,22.80
2019-02-18T12:20:26.137Z,23.30
2019-02-18T12:22:54.573Z,24.00
2019-02-18T12:25:27.913Z,24.00
2019-02-18T12:27:58.801Z,23.90
2019-02-18T12:30:32.470Z,24.20
2019-02-18T12:33:01.257Z,24.00
2019-02-18T12:35:31.532Z,24.10
2019-02-18T12:38:17.388Z,24.80
2019-02-18T12:40:37.537Z,24.60
2019-02-18T12:43:20.872Z,24.60
2019-02-18T12:45:43.641Z,25.20
2019-02-18T12:48:12.150Z,25.30
2019-02-18T12:50:40.643Z,26.00
2019-02-18T12:53:19.386Z,25.10
2019-02-18T12:55:49.474Z,25.60
2019-02-18T12:58:23.621Z,25.40
2019-02-18T13:01:03.288Z,25.30
2019-02-18T13:03:34.433Z,25.40
2019-02-18T13:06:02.860Z,25.30
2019-02-18T13:08:40.441Z,25.50
2019-02-18T13:11:08.926Z,25.70
2019-02-18T13:13:46.337Z,25.60
2019-02-18T13:16:16.661Z,25.70
2019-02-18T13:18:45.089Z,26.40
2019-02-18T13:21:17.903Z,26.60
2019-02-18T13:23:49.210Z,27.30
2019-02-18T13:26:20.264Z,27.70
2019-02-18T13:29:03.713Z,27.70
2019-02-18T13:31:36.734Z,28.20
2019-02-18T13:34:05.165Z,29.10
2019-02-18T13:36:36.262Z,29.40
2019-02-18T13:39:05.620Z,29.30
2019-02-18T13:41:34.413Z,29.10
2019-02-18T13:44:06.020Z,28.90
2019-02-18T13:46:35.226Z,29.20
2019-02-18T13:49:06.607Z,30.10
2019-02-18T13:51:39.270Z,30.40
2019-02-18T13:54:16.967Z,30.30
2019-02-18T13:56:45.799Z,30.60
2019-02-18T13:59:20.189Z,30.90
2019-02-18T14:01:48.865Z,30.90
2019-02-18T14:04:19.929Z,31.80
2019-02-18T14:06:51.225Z,32.50
2019-02-18T14:09:26.878Z,32.50
2019-02-18T14:11:57.946Z,32.00
2019-02-18T14:14:26.431Z,33.70
2019-02-18T14:17:00.570Z,34.80
2019-02-18T14:19:32.229Z,35.30
2019-02-18T14:22:05.076Z,35.60
2019-02-18T14:24:40.919Z,36.20
2019-02-18T14:27:14.697Z,36.10
2019-02-18T14:29:48.421Z,36.50
2019-02-18T14:32:25.229Z,37.10
2019-02-18T14:34:56.644Z,38.10
2019-02-18T14:37:31.205Z,38.90
2019-02-18T14:39:59.626Z,39.70
2019-02-18T14:42:28.983Z,42.40
2019-02-18T14:45:00.318Z,42.90
2019-02-18T14:47:33.081Z,43.30
2019-02-18T14:50:08.777Z,43.60
2019-02-18T14:52:37.323Z,44.60
2019-02-18T14:55:12.312Z,46.10
2019-02-18T14:57:41.733Z,45.30
2019-02-18T15:00:19.705Z,47.30
2019-02-18T15:02:54.941Z,48.90
2019-02-18T15:05:32.570Z,48.30
2019-02-18T15:08:03.394Z,49.00
2019-02-18T15:10:34.718Z,50.00
2019-02-18T15:13:08.865Z,49.20
2019-02-18T15:15:37.281Z,50.20
2019-02-18T15:18:08.917Z,50.70
2019-02-18T15:20:37.333Z,51.20
2019-02-18T15:23:05.835Z,51.50
2019-02-18T15:25:39.727Z,52.60
2019-02-18T15:28:15.400Z,53.60
2019-02-18T15:30:49.694Z,54.20
2019-02-18T15:33:19.687Z,55.20
2019-02-18T15:35:56.732Z,56.30
2019-02-18T15:38:25.171Z,56.90
2019-02-18T15:40:53.825Z,57.30
2019-02-18T15:43:32.979Z,58.20
2019-02-18T15:46:11.399Z,59.30
2019-02-18T15:48:43.857Z,60.00
2019-02-18T15:51:18.445Z,61.80
2019-02-18T15:53:47.741Z,63.50
2019-02-18T15:56:19.023Z,65.20
2019-02-18T15:58:49.131Z,67.10
2019-02-18T16:01:20.071Z,68.80
2019-02-18T16:03:54.235Z,70.10
2019-02-18T16:06:33.769Z,70.90
2019-02-18T16:09:09.605Z,72.70
2019-02-18T16:11:39.716Z,74.50
2019-02-18T16:14:09.830Z,76.00
2019-02-18T16:16:39.581Z,77.00
2019-02-18T16:19:09.730Z,78.50
2019-02-18T16:21:38.513Z,78.70
2019-02-18T16:24:19.659Z,79.60
2019-02-18T16:26:44.127Z,80.70
2019-02-18T16:29:17.113Z,81.20
2019-02-18T16:31:45.575Z,81.70
2019-02-18T16:34:19.752Z,82.60
2019-02-18T16:36:51.134Z,82.40
2019-02-18T16:39:22.426Z,83.40
2019-02-18T16:41:50.837Z,85.50
2019-02-18T16:44:19.270Z,85.60
2019-02-18T16:46:47.757Z,85.50
2019-02-18T16:49:16.829Z,86.70
2019-02-18T16:51:45.649Z,86.80
2019-02-18T16:54:21.604Z,86.20
2019-02-18T16:56:53.053Z,87.10
2019-02-18T16:59:33.697Z,87.10
2019-02-18T17:02:07.820Z,89.10
2019-02-18T17:04:37.892Z,88.30
2019-02-18T17:07:11.134Z,89.00
2019-02-18T17:09:46.538Z,90.00
2019-02-18T17:12:17.801Z,89.60
2019-02-18T17:14:48.998Z,89.90
2019-02-18T17:17:23.117Z,90.40
2019-02-18T17:19:51.540Z,89.90
2019-02-18T17:22:20.210Z,90.00
2019-02-18T17:24:48.649Z,90.40
2019-02-18T17:27:17.208Z,90.50
2019-02-18T17:29:47.394Z,90.80
2019-02-18T17:32:21.541Z,90.40
2019-02-18T17:34:52.683Z,90.70
2019-02-18T17:37:24.392Z,90.70
2019-02-18T17:39:57.501Z,90.90
2019-02-18T17:42:31.655Z,91.10
2019-02-18T17:45:03.507Z,91.60
2019-02-18T17:47:33.688Z,91.70
2019-02-18T17:50:02.349Z,91.70
2019-02-18T17:52:36.963Z,92.00
2019-02-18T17:55:07.996Z,91.90
2019-02-18T17:57:39.438Z,92.00
2019-02-18T18:00:15.443Z,92.00
2019-02-18T18:02:44.022Z,92.40
2019-02-18T18:05:12.994Z,92.40
2019-02-18T18:07:47.416Z,92.10
2019-02-18T18:10:16.221Z,92.00
2019-02-18T18:12:44.641Z,92.20
2019-02-18T18:15:16.212Z,92.20
2019-02-18T18:17:45.058Z,92.30
2019-02-18T18:20:27.926Z,92.30
2019-02-18T18:22:59.783Z,92.40
2019-02-18T18:25:28.193Z,92.40
2019-02-18T18:27:58.146Z,92.40
2019-02-18T18:30:33.585Z,92.40
2019-02-18T18:33:05.911Z,92.80
2019-02-18T18:35:34.943Z,92.80
2019-02-18T18:38:05.057Z,92.90
2019-02-18T18:40:33.497Z,93.10
2019-02-18T18:43:03.567Z,93.40
2019-02-18T18:45:32.084Z,93.20
2019-02-18T18:48:06.331Z,93.60
2019-02-18T18:50:37.831Z,93.60
2019-02-18T18:53:06.301Z,93.30
2019-02-18T18:55:36.349Z,93.50
2019-02-18T18:58:08.249Z,93.50
2019-02-18T19:00:36.680Z,93.50
2019-02-18T19:03:07.061Z,93.70
2019-02-18T19:05:38.232Z,93.70
2019-02-18T19:08:13.966Z,94.10
2019-02-18T19:10:48.082Z,94.00
2019-02-18T19:13:16.574Z,94.10
2019-02-18T19:15:49.612Z,94.40
2019-02-18T19:18:16.777Z,94.30
2019-02-18T19:20:53.705Z,94.20
2019-02-18T19:23:27.570Z,94.20
2019-02-18T19:25:56.261Z,94.40
2019-02-18T19:28:24.689Z,94.00
2019-02-18T19:30:54.690Z,94.50
2019-02-18T19:33:24.831Z,94.50
2019-02-18T19:35:54.893Z,94.50
2019-02-18T19:38:24.359Z,94.40
2019-02-18T19:40:56.233Z,94.30
2019-02-18T19:43:34.273Z,94.50
2019-02-18T19:46:25.641Z,94.60
2019-02-18T19:48:47.596Z,94.70
2019-02-18T19:51:24.041Z,94.50
2019-02-18T19:54:00.363Z,94.80
2019-02-18T19:56:42.272Z,94.70
2019-02-18T20:02:13.896Z,94.90
2019-02-18T20:04:51.433Z,95.00
2019-02-18T20:07:19.840Z,94.80
2019-02-18T20:09:48.345Z,94.90
2019-02-18T20:12:16.824Z,94.90
2019-02-18T20:14:47.966Z,95.20
2019-02-18T20:17:17.401Z,95.10
2019-02-18T20:19:46.084Z,95.50
2019-02-18T20:22:20.289Z,95.30
2019-02-18T20:24:51.641Z,95.30
2019-02-18T20:27:32.918Z,95.50
2019-02-18T20:30:03.342Z,95.40
2019-02-18T20:32:37.801Z,95.20
2019-02-18T20:35:14.144Z,95.20
2019-02-18T20:37:44.212Z,95.60
2019-02-18T20:40:13.595Z,95.60
2019-02-18T20:42:45.202Z,95.50
2019-02-18T20:45:17.325Z,95.50
2019-02-18T20:47:45.982Z,95.60
2019-02-18T20:50:18.122Z,95.80
2019-02-18T20:52:49.205Z,95.60
2019-02-18T20:55:19.541Z,95.60
2019-02-18T20:57:47.950Z,95.80
2019-02-18T21:00:22.649Z,95.90
2019-02-18T21:02:51.061Z,96.00
2019-02-18T21:05:25.710Z,96.30
2019-02-18T21:07:58.752Z,96.60
2019-02-18T21:10:29.590Z,96.80
2019-02-18T21:12:58.258Z,96.70
2019-02-18T21:15:32.625Z,96.70
2019-02-18T21:18:05.371Z,96.80
2019-02-18T21:20:38.304Z,96.90
2019-02-18T21:23:09.662Z,96.70
2019-02-18T21:25:38.159Z,96.60
2019-02-18T21:28:06.697Z,96.40
2019-02-18T21:30:36.821Z,96.60
2019-02-18T21:33:10.330Z,96.70
2019-02-18T21:35:38.766Z,96.60
2019-02-18T21:38:07.577Z,96.70
2019-02-18T21:40:36.008Z,96.90
2019-02-18T21:43:10.385Z,97.00
2019-02-18T21:45:44.524Z,96.90
2019-02-18T21:48:17.501Z,97.00
2019-02-18T21:50:46.008Z,97.20
2019-02-18T21:53:19.682Z,97.20
2019-02-18T21:55:52.144Z,97.30
2019-02-18T21:58:25.241Z,97.50
2019-02-18T22:00:58.988Z,97.70
2019-02-18T22:03:27.422Z,97.50
2019-02-18T22:05:55.906Z,97.70
2019-02-18T22:08:31.615Z,97.60
2019-02-18T22:11:04.901Z,97.70
2019-02-18T22:13:33.324Z,97.70
2019-02-18T22:16:04.669Z,97.70
2019-02-18T22:18:43.842Z,97.70
2019-02-18T22:21:18.064Z,97.80
2019-02-18T22:23:46.741Z,97.60
2019-02-18T22:26:23.703Z,97.70
2019-02-18T22:28:55.273Z,97.80
2019-02-18T22:31:26.888Z,97.90
2019-02-18T22:33:58.706Z,97.90
2019-02-18T22:36:30.293Z,98.20
2019-02-18T22:38:58.714Z,98.40
2019-02-18T22:41:27.129Z,98.40
2019-02-18T22:44:10.648Z,98.30
2019-02-18T22:46:50.418Z,98.50
2019-02-18T22:49:21.483Z,98.50
2019-02-18T22:51:52.972Z,98.50
2019-02-18T22:54:32.074Z,98.50
2019-02-18T22:57:00.497Z,98.20
2019-02-18T22:59:32.389Z,98.40
2019-02-18T23:02:06.526Z,98.50
2019-02-18T23:04:40.605Z,98.40
2019-02-18T23:07:17.389Z,98.30
2019-02-18T23:09:51.782Z,98.50
2019-02-18T23:12:20.196Z,98.60
2019-02-18T23:14:50.626Z,98.70
2019-02-18T23:17:20.393Z,98.60
2019-02-18T23:19:54.648Z,98.90
2019-02-18T23:22:23.121Z,98.90
2019-02-18T23:24:51.729Z,98.60
2019-02-18T23:27:23.069Z,98.50
2019-02-18T23:29:54.200Z,98.50
2019-02-18T23:32:22.620Z,98.80
2019-02-18T23:34:56.729Z,98.70
2019-02-18T23:37:27.935Z,98.80
2019-02-18T23:39:56.732Z,98.80
2019-02-18T23:42:28.094Z,98.90
2019-02-18T23:45:01.501Z,98.90
2019-02-18T23:47:27.412Z,99.10
2019-02-18T23:49:58.764Z,98.70
2019-02-18T23:52:35.842Z,98.80
2019-02-18T23:55:07.284Z,99.00
2019-02-18T23:57:57.712Z,99.00
